sensor_id;sensor_type;location;lat;lon;timestamp;temperature;humidity
7360;DHT22;3720;48.274;7.796;2023-11-21T00:01:03;10.60;99.90
7360;DHT22;3720;48.274;7.796;2023-11-21T00:03:35;10.60;99.90
7360;DHT22;3720;48.274;7.796;2023-11-21T00:06:07;10.60;99.90
7360;DHT22;3720;48.274;7.796;2023-11-21T00:08:40;10.60;99.90
7360;DHT22;3720;48.274;7.796;2023-11-21T00:11:11;10.50;99.90
7360;DHT22;3720;48.274;7.796;2023-11-21T00:13:45;10.50;99.90
7360;DHT22;3720;48.274;7.796;2023-11-21T00:16:17;10.50;99.90
7360;DHT22;3720;48.274;7.796;2023-11-21T00:18:49;10.50;99.90
7360;DHT22;3720;48.274;7.796;2023-11-21T00:21:21;10.50;99.90
7360;DHT22;3720;48.274;7.796;2023-11-21T00:23:53;10.50;99.90
7360;DHT22;3720;48.274;7.796;2023-11-21T00:26:25;10.40;99.90
7360;DHT22;3720;48.274;7.796;2023-11-21T00:28:58;10.50;99.90
7360;DHT22;3720;48.274;7.796;2023-11-21T00:31:30;10.50;99.90
7360;DHT22;3720;48.274;7.796;2023-11-21T00:34:02;10.40;99.90
7360;DHT22;3720;48.274;7.796;2023-11-21T00:36:35;10.40;99.90
7360;DHT22;3720;48.274;7.796;2023-11-21T00:39:07;10.40;99.90
7360;DHT22;3720;48.274;7.796;2023-11-21T00:41:39;10.40;99.90
7360;DHT22;3720;48.274;7.796;2023-11-21T00:44:12;10.40;99.90
7360;DHT22;3720;48.274;7.796;2023-11-21T00:46:44;10.30;99.90
7360;DHT22;3720;48.274;7.796;2023-11-21T00:49:16;10.40;99.90
7360;DHT22;3720;48.274;7.796;2023-11-21T00:51:48;10.30;99.90
7360;DHT22;3720;48.274;7.796;2023-11-21T00:54:20;10.40;99.90
7360;DHT22;3720;48.274;7.796;2023-11-21T00:56:51;10.40;99.90
7360;DHT22;3720;48.274;7.796;2023-11-21T00:59:25;10.30;99.90
7360;DHT22;3720;48.274;7.796;2023-11-21T01:01:56;10.30;99.90
7360;DHT22;3720;48.274;7.796;2023-11-21T01:04:30;10.40;99.90
7360;DHT22;3720;48.274;7.796;2023-11-21T01:07:03;10.30;99.90
7360;DHT22;3720;48.274;7.796;2023-11-21T01:09:36;10.30;99.90
7360;DHT22;3720;48.274;7.796;2023-11-21T01:12:08;10.40;99.90
7360;DHT22;3720;48.274;7.796;2023-11-21T01:14:41;10.30;99.90
7360;DHT22;3720;48.274;7.796;2023-11-21T01:17:13;10.30;99.90
7360;DHT22;3720;48.274;7.796;2023-11-21T01:19:45;10.40;99.90
7360;DHT22;3720;48.274;7.796;2023-11-21T01:22:17;10.40;99.90
7360;DHT22;3720;48.274;7.796;2023-11-21T01:24:53;10.40;99.90
7360;DHT22;3720;48.274;7.796;2023-11-21T01:27:25;10.40;99.90
7360;DHT22;3720;48.274;7.796;2023-11-21T01:29:58;10.40;99.90
7360;DHT22;3720;48.274;7.796;2023-11-21T01:32:30;10.40;99.90
7360;DHT22;3720;48.274;7.796;2023-11-21T01:35:02;10.40;99.90
7360;DHT22;3720;48.274;7.796;2023-11-21T01:37:36;10.40;99.90
7360;DHT22;3720;48.274;7.796;2023-11-21T01:40:09;10.30;99.90
7360;DHT22;3720;48.274;7.796;2023-11-21T01:42:44;10.30;99.90
7360;DHT22;3720;48.274;7.796;2023-11-21T01:45:19;10.30;99.90
7360;DHT22;3720;48.274;7.796;2023-11-21T01:47:51;10.30;99.90
7360;DHT22;3720;48.274;7.796;2023-11-21T01:50:23;10.20;99.90
7360;DHT22;3720;48.274;7.796;2023-11-21T01:52:55;10.20;99.90
7360;DHT22;3720;48.274;7.796;2023-11-21T01:55:28;10.10;99.90
7360;DHT22;3720;48.274;7.796;2023-11-21T01:58:00;10.00;99.90
7360;DHT22;3720;48.274;7.796;2023-11-21T02:00:33;10.00;99.90
7360;DHT22;3720;48.274;7.796;2023-11-21T02:03:05;10.00;99.90
7360;DHT22;3720;48.274;7.796;2023-11-21T02:05:38;9.90;99.90
7360;DHT22;3720;48.274;7.796;2023-11-21T02:08:10;9.90;99.90
7360;DHT22;3720;48.274;7.796;2023-11-21T02:10:41;9.90;99.90
7360;DHT22;3720;48.274;7.796;2023-11-21T02:13:13;9.90;99.90
7360;DHT22;3720;48.274;7.796;2023-11-21T02:15:48;9.90;99.90
7360;DHT22;3720;48.274;7.796;2023-11-21T02:18:22;9.90;99.90
7360;DHT22;3720;48.274;7.796;2023-11-21T02:20:55;10.00;99.90
7360;DHT22;3720;48.274;7.796;2023-11-21T02:23:29;9.90;99.90
7360;DHT22;3720;48.274;7.796;2023-11-21T02:26:01;10.00;99.90
7360;DHT22;3720;48.274;7.796;2023-11-21T02:28:34;10.00;99.90
7360;DHT22;3720;48.274;7.796;2023-11-21T02:31:06;10.00;99.90
7360;DHT22;3720;48.274;7.796;2023-11-21T02:33:38;10.00;99.90
7360;DHT22;3720;48.274;7.796;2023-11-21T02:36:10;10.00;99.90
7360;DHT22;3720;48.274;7.796;2023-11-21T02:38:43;10.00;99.90
7360;DHT22;3720;48.274;7.796;2023-11-21T02:41:16;10.00;99.90
7360;DHT22;3720;48.274;7.796;2023-11-21T02:43:47;10.00;99.90
7360;DHT22;3720;48.274;7.796;2023-11-21T02:46:19;10.00;99.90
7360;DHT22;3720;48.274;7.796;2023-11-21T02:48:51;10.00;99.90
7360;DHT22;3720;48.274;7.796;2023-11-21T02:51:24;10.00;99.90
7360;DHT22;3720;48.274;7.796;2023-11-21T02:53:57;10.00;99.90
7360;DHT22;3720;48.274;7.796;2023-11-21T02:56:31;10.00;99.90
7360;DHT22;3720;48.274;7.796;2023-11-21T02:59:03;10.00;99.90
7360;DHT22;3720;48.274;7.796;2023-11-21T03:01:35;10.00;99.90
7360;DHT22;3720;48.274;7.796;2023-11-21T03:04:07;10.00;99.90
7360;DHT22;3720;48.274;7.796;2023-11-21T03:06:39;10.00;99.90
7360;DHT22;3720;48.274;7.796;2023-11-21T03:09:12;10.00;99.90
7360;DHT22;3720;48.274;7.796;2023-11-21T03:11:44;10.00;99.90
7360;DHT22;3720;48.274;7.796;2023-11-21T03:14:15;10.00;99.90
7360;DHT22;3720;48.274;7.796;2023-11-21T03:16:48;10.00;99.90
7360;DHT22;3720;48.274;7.796;2023-11-21T03:19:19;9.90;99.90
7360;DHT22;3720;48.274;7.796;2023-11-21T03:21:51;9.90;99.90
7360;DHT22;3720;48.274;7.796;2023-11-21T03:24:25;9.90;99.90
7360;DHT22;3720;48.274;7.796;2023-11-21T03:26:57;9.90;99.90
7360;DHT22;3720;48.274;7.796;2023-11-21T03:29:29;9.90;99.90
7360;DHT22;3720;48.274;7.796;2023-11-21T03:32:00;9.90;99.90
7360;DHT22;3720;48.274;7.796;2023-11-21T03:34:32;9.90;99.90
7360;DHT22;3720;48.274;7.796;2023-11-21T03:37:04;9.90;99.90
7360;DHT22;3720;48.274;7.796;2023-11-21T03:39:37;9.80;99.90
7360;DHT22;3720;48.274;7.796;2023-11-21T03:42:09;9.80;99.90
7360;DHT22;3720;48.274;7.796;2023-11-21T03:44:41;9.90;99.90
7360;DHT22;3720;48.274;7.796;2023-11-21T03:47:13;9.90;99.90
7360;DHT22;3720;48.274;7.796;2023-11-21T03:49:44;9.90;99.90
7360;DHT22;3720;48.274;7.796;2023-11-21T03:52:17;9.90;99.90
7360;DHT22;3720;48.274;7.796;2023-11-21T03:54:50;9.90;99.90
7360;DHT22;3720;48.274;7.796;2023-11-21T03:57:22;9.80;99.90
7360;DHT22;3720;48.274;7.796;2023-11-21T03:59:54;9.80;99.90
7360;DHT22;3720;48.274;7.796;2023-11-21T04:02:26;9.80;99.90
7360;DHT22;3720;48.274;7.796;2023-11-21T04:04:58;9.70;99.90
7360;DHT22;3720;48.274;7.796;2023-11-21T04:07:30;9.80;99.90
7360;DHT22;3720;48.274;7.796;2023-11-21T04:10:04;9.80;99.90
7360;DHT22;3720;48.274;7.796;2023-11-21T04:12:38;9.80;99.90
7360;DHT22;3720;48.274;7.796;2023-11-21T04:15:10;9.80;99.90
7360;DHT22;3720;48.274;7.796;2023-11-21T04:17:43;9.70;99.90
7360;DHT22;3720;48.274;7.796;2023-11-21T04:20:15;9.70;99.90
7360;DHT22;3720;48.274;7.796;2023-11-21T04:22:47;9.80;99.90
7360;DHT22;3720;48.274;7.796;2023-11-21T04:25:20;9.80;99.90
7360;DHT22;3720;48.274;7.796;2023-11-21T04:27:53;9.70;99.90
7360;DHT22;3720;48.274;7.796;2023-11-21T04:30:25;9.70;99.90
7360;DHT22;3720;48.274;7.796;2023-11-21T04:32:57;9.80;99.90
7360;DHT22;3720;48.274;7.796;2023-11-21T04:35:29;9.70;99.90
7360;DHT22;3720;48.274;7.796;2023-11-21T04:38:00;9.70;99.90
7360;DHT22;3720;48.274;7.796;2023-11-21T04:40:34;9.80;99.90
7360;DHT22;3720;48.274;7.796;2023-11-21T04:43:06;9.70;99.90
7360;DHT22;3720;48.274;7.796;2023-11-21T04:45:38;9.70;99.90
7360;DHT22;3720;48.274;7.796;2023-11-21T04:48:11;9.70;99.90
7360;DHT22;3720;48.274;7.796;2023-11-21T04:50:43;9.70;99.90
7360;DHT22;3720;48.274;7.796;2023-11-21T04:53:15;9.70;99.90
7360;DHT22;3720;48.274;7.796;2023-11-21T04:55:48;9.70;99.90
7360;DHT22;3720;48.274;7.796;2023-11-21T04:58:20;9.70;99.90
7360;DHT22;3720;48.274;7.796;2023-11-21T05:00:52;9.70;99.90
7360;DHT22;3720;48.274;7.796;2023-11-21T05:03:24;9.60;99.90
7360;DHT22;3720;48.274;7.796;2023-11-21T05:05:56;9.70;99.90
7360;DHT22;3720;48.274;7.796;2023-11-21T05:08:28;9.70;99.90
7360;DHT22;3720;48.274;7.796;2023-11-21T05:11:01;9.70;99.90
7360;DHT22;3720;48.274;7.796;2023-11-21T05:13:34;9.60;99.90
7360;DHT22;3720;48.274;7.796;2023-11-21T05:16:06;9.60;99.90
7360;DHT22;3720;48.274;7.796;2023-11-21T05:18:38;9.60;99.90
7360;DHT22;3720;48.274;7.796;2023-11-21T05:21:11;9.50;99.90
7360;DHT22;3720;48.274;7.796;2023-11-21T05:23:43;9.50;99.90
7360;DHT22;3720;48.274;7.796;2023-11-21T05:26:16;9.50;99.90
7360;DHT22;3720;48.274;7.796;2023-11-21T05:28:48;9.50;99.90
7360;DHT22;3720;48.274;7.796;2023-11-21T05:31:20;9.60;99.90
7360;DHT22;3720;48.274;7.796;2023-11-21T05:33:52;9.50;99.90
7360;DHT22;3720;48.274;7.796;2023-11-21T05:36:24;9.60;99.90
7360;DHT22;3720;48.274;7.796;2023-11-21T05:38:56;9.50;99.90
7360;DHT22;3720;48.274;7.796;2023-11-21T05:41:29;9.50;99.90
7360;DHT22;3720;48.274;7.796;2023-11-21T05:44:00;9.50;99.90
7360;DHT22;3720;48.274;7.796;2023-11-21T05:46:32;9.50;99.90
7360;DHT22;3720;48.274;7.796;2023-11-21T05:49:05;9.50;99.90
7360;DHT22;3720;48.274;7.796;2023-11-21T05:51:38;9.50;99.90
7360;DHT22;3720;48.274;7.796;2023-11-21T05:54:10;9.50;99.90
7360;DHT22;3720;48.274;7.796;2023-11-21T05:56:43;9.50;99.90
7360;DHT22;3720;48.274;7.796;2023-11-21T05:59:15;9.40;99.90
7360;DHT22;3720;48.274;7.796;2023-11-21T06:01:47;9.50;99.90
7360;DHT22;3720;48.274;7.796;2023-11-21T06:04:19;9.50;99.90
7360;DHT22;3720;48.274;7.796;2023-11-21T06:06:54;9.50;99.90
7360;DHT22;3720;48.274;7.796;2023-11-21T06:09:26;9.50;99.90
7360;DHT22;3720;48.274;7.796;2023-11-21T06:11:59;9.50;99.90
7360;DHT22;3720;48.274;7.796;2023-11-21T06:14:31;9.50;99.90
7360;DHT22;3720;48.274;7.796;2023-11-21T06:17:05;9.50;99.90
7360;DHT22;3720;48.274;7.796;2023-11-21T06:19:37;9.50;99.90
7360;DHT22;3720;48.274;7.796;2023-11-21T06:22:09;9.40;99.90
7360;DHT22;3720;48.274;7.796;2023-11-21T06:24:40;9.40;99.90
7360;DHT22;3720;48.274;7.796;2023-11-21T06:27:14;9.50;99.90
7360;DHT22;3720;48.274;7.796;2023-11-21T06:29:46;9.60;99.90
7360;DHT22;3720;48.274;7.796;2023-11-21T06:32:18;9.60;99.90
7360;DHT22;3720;48.274;7.796;2023-11-21T06:34:51;9.60;99.90
7360;DHT22;3720;48.274;7.796;2023-11-21T06:37:24;9.60;99.90
7360;DHT22;3720;48.274;7.796;2023-11-21T06:39:58;9.60;99.90
7360;DHT22;3720;48.274;7.796;2023-11-21T06:42:31;9.50;99.90
7360;DHT22;3720;48.274;7.796;2023-11-21T06:45:04;9.50;99.90
7360;DHT22;3720;48.274;7.796;2023-11-21T06:47:36;9.50;99.90
7360;DHT22;3720;48.274;7.796;2023-11-21T06:50:09;9.50;99.90
7360;DHT22;3720;48.274;7.796;2023-11-21T06:52:41;9.50;99.90
7360;DHT22;3720;48.274;7.796;2023-11-21T06:55:13;9.50;99.90
7360;DHT22;3720;48.274;7.796;2023-11-21T06:57:47;9.50;99.90
7360;DHT22;3720;48.274;7.796;2023-11-21T07:00:19;9.40;99.90
7360;DHT22;3720;48.274;7.796;2023-11-21T07:02:51;9.40;99.90
7360;DHT22;3720;48.274;7.796;2023-11-21T07:05:23;9.40;99.90
7360;DHT22;3720;48.274;7.796;2023-11-21T07:07:55;9.40;99.90
7360;DHT22;3720;48.274;7.796;2023-11-21T07:10:26;9.40;99.90
7360;DHT22;3720;48.274;7.796;2023-11-21T07:13:00;9.40;99.90
7360;DHT22;3720;48.274;7.796;2023-11-21T07:15:31;9.40;99.90
7360;DHT22;3720;48.274;7.796;2023-11-21T07:18:04;9.40;99.90
7360;DHT22;3720;48.274;7.796;2023-11-21T07:20:38;9.40;99.90
7360;DHT22;3720;48.274;7.796;2023-11-21T07:23:10;9.40;99.90
7360;DHT22;3720;48.274;7.796;2023-11-21T07:25:42;9.40;99.90
7360;DHT22;3720;48.274;7.796;2023-11-21T07:28:15;9.40;99.90
7360;DHT22;3720;48.274;7.796;2023-11-21T07:30:47;9.40;99.90
7360;DHT22;3720;48.274;7.796;2023-11-21T07:33:19;9.40;99.90
7360;DHT22;3720;48.274;7.796;2023-11-21T07:35:52;9.40;99.90
7360;DHT22;3720;48.274;7.796;2023-11-21T07:38:23;9.40;99.90
7360;DHT22;3720;48.274;7.796;2023-11-21T07:40:55;9.40;99.90
7360;DHT22;3720;48.274;7.796;2023-11-21T07:43:28;9.50;99.90
7360;DHT22;3720;48.274;7.796;2023-11-21T07:46:05;9.50;99.90
7360;DHT22;3720;48.274;7.796;2023-11-21T07:48:38;9.50;99.90
7360;DHT22;3720;48.274;7.796;2023-11-21T07:51:11;9.50;99.90
7360;DHT22;3720;48.274;7.796;2023-11-21T07:53:44;9.40;99.90
7360;DHT22;3720;48.274;7.796;2023-11-21T07:56:16;9.50;99.90
7360;DHT22;3720;48.274;7.796;2023-11-21T07:58:49;9.50;99.90
7360;DHT22;3720;48.274;7.796;2023-11-21T08:01:21;9.50;99.90
7360;DHT22;3720;48.274;7.796;2023-11-21T08:03:53;9.50;99.90
7360;DHT22;3720;48.274;7.796;2023-11-21T08:06:27;9.50;99.90
7360;DHT22;3720;48.274;7.796;2023-11-21T08:08:59;9.50;99.90
7360;DHT22;3720;48.274;7.796;2023-11-21T08:11:31;9.50;99.90
7360;DHT22;3720;48.274;7.796;2023-11-21T08:14:05;9.50;99.90
7360;DHT22;3720;48.274;7.796;2023-11-21T08:16:37;9.50;99.90
7360;DHT22;3720;48.274;7.796;2023-11-21T08:19:09;9.60;99.90
7360;DHT22;3720;48.274;7.796;2023-11-21T08:21:41;9.60;99.90
7360;DHT22;3720;48.274;7.796;2023-11-21T08:24:13;9.60;99.90
7360;DHT22;3720;48.274;7.796;2023-11-21T08:26:45;9.60;99.90
7360;DHT22;3720;48.274;7.796;2023-11-21T08:29:18;9.60;99.90
7360;DHT22;3720;48.274;7.796;2023-11-21T08:31:50;9.60;99.90
7360;DHT22;3720;48.274;7.796;2023-11-21T08:34:22;9.60;99.90
7360;DHT22;3720;48.274;7.796;2023-11-21T08:36:54;9.70;99.90
7360;DHT22;3720;48.274;7.796;2023-11-21T08:39:27;9.70;99.90
7360;DHT22;3720;48.274;7.796;2023-11-21T08:42:00;9.70;99.90
7360;DHT22;3720;48.274;7.796;2023-11-21T08:44:34;9.70;99.90
7360;DHT22;3720;48.274;7.796;2023-11-21T08:47:06;9.70;99.90
7360;DHT22;3720;48.274;7.796;2023-11-21T08:49:38;9.70;99.90
7360;DHT22;3720;48.274;7.796;2023-11-21T08:52:10;9.70;99.90
7360;DHT22;3720;48.274;7.796;2023-11-21T08:54:42;9.70;99.90
7360;DHT22;3720;48.274;7.796;2023-11-21T08:57:15;9.70;99.90
7360;DHT22;3720;48.274;7.796;2023-11-21T08:59:49;9.60;99.90
7360;DHT22;3720;48.274;7.796;2023-11-21T09:02:26;9.60;99.90
7360;DHT22;3720;48.274;7.796;2023-11-21T09:04:58;9.50;99.90
7360;DHT22;3720;48.274;7.796;2023-11-21T09:07:30;9.50;99.90
7360;DHT22;3720;48.274;7.796;2023-11-21T09:10:02;9.60;99.90
7360;DHT22;3720;48.274;7.796;2023-11-21T09:12:34;9.60;99.90
7360;DHT22;3720;48.274;7.796;2023-11-21T09:15:09;9.60;99.90
7360;DHT22;3720;48.274;7.796;2023-11-21T09:17:42;9.50;99.90
7360;DHT22;3720;48.274;7.796;2023-11-21T09:20:15;9.60;99.90
7360;DHT22;3720;48.274;7.796;2023-11-21T09:22:47;9.60;99.90
7360;DHT22;3720;48.274;7.796;2023-11-21T09:25:18;9.60;99.90
7360;DHT22;3720;48.274;7.796;2023-11-21T09:27:51;9.60;99.90
7360;DHT22;3720;48.274;7.796;2023-11-21T09:30:25;9.60;99.90
7360;DHT22;3720;48.274;7.796;2023-11-21T09:32:56;9.60;99.90
7360;DHT22;3720;48.274;7.796;2023-11-21T09:35:29;9.60;99.90
7360;DHT22;3720;48.274;7.796;2023-11-21T09:38:01;9.70;99.90
7360;DHT22;3720;48.274;7.796;2023-11-21T09:40:36;9.70;99.90
7360;DHT22;3720;48.274;7.796;2023-11-21T09:43:12;9.80;99.90
7360;DHT22;3720;48.274;7.796;2023-11-21T09:46:02;9.70;99.90
7360;DHT22;3720;48.274;7.796;2023-11-21T09:48:41;9.80;99.90
7360;DHT22;3720;48.274;7.796;2023-11-21T09:51:13;9.80;99.90
7360;DHT22;3720;48.274;7.796;2023-11-21T09:53:49;9.80;99.90
7360;DHT22;3720;48.274;7.796;2023-11-21T09:56:22;9.80;99.90
7360;DHT22;3720;48.274;7.796;2023-11-21T09:58:56;9.70;99.90
7360;DHT22;3720;48.274;7.796;2023-11-21T10:01:31;9.70;99.90
7360;DHT22;3720;48.274;7.796;2023-11-21T10:04:04;9.70;99.90
7360;DHT22;3720;48.274;7.796;2023-11-21T10:06:42;9.70;99.90
7360;DHT22;3720;48.274;7.796;2023-11-21T10:09:14;9.70;99.90
7360;DHT22;3720;48.274;7.796;2023-11-21T10:11:47;9.70;99.90
7360;DHT22;3720;48.274;7.796;2023-11-21T10:14:24;9.60;99.90
7360;DHT22;3720;48.274;7.796;2023-11-21T10:17:00;9.60;99.90
7360;DHT22;3720;48.274;7.796;2023-11-21T10:19:33;9.70;99.90
7360;DHT22;3720;48.274;7.796;2023-11-21T10:22:05;9.70;99.90
7360;DHT22;3720;48.274;7.796;2023-11-21T10:24:38;9.70;99.90
7360;DHT22;3720;48.274;7.796;2023-11-21T10:27:10;9.70;99.90
7360;DHT22;3720;48.274;7.796;2023-11-21T10:29:42;9.70;99.90
7360;DHT22;3720;48.274;7.796;2023-11-21T10:32:15;9.70;99.90
7360;DHT22;3720;48.274;7.796;2023-11-21T10:34:55;9.80;99.90
7360;DHT22;3720;48.274;7.796;2023-11-21T10:37:27;9.80;99.90
7360;DHT22;3720;48.274;7.796;2023-11-21T10:39:59;9.80;99.90
7360;DHT22;3720;48.274;7.796;2023-11-21T10:42:32;9.80;99.90
7360;DHT22;3720;48.274;7.796;2023-11-21T10:45:04;9.80;99.90
7360;DHT22;3720;48.274;7.796;2023-11-21T10:47:44;9.80;99.90
7360;DHT22;3720;48.274;7.796;2023-11-21T10:50:18;9.80;99.90
7360;DHT22;3720;48.274;7.796;2023-11-21T10:52:51;9.80;99.90
7360;DHT22;3720;48.274;7.796;2023-11-21T10:55:23;9.80;99.90
7360;DHT22;3720;48.274;7.796;2023-11-21T10:57:58;9.80;99.90
7360;DHT22;3720;48.274;7.796;2023-11-21T11:00:30;9.80;99.90
7360;DHT22;3720;48.274;7.796;2023-11-21T11:03:04;9.80;99.90
7360;DHT22;3720;48.274;7.796;2023-11-21T11:05:36;9.80;99.90
7360;DHT22;3720;48.274;7.796;2023-11-21T11:08:09;9.80;99.90
7360;DHT22;3720;48.274;7.796;2023-11-21T11:10:43;9.90;99.90
7360;DHT22;3720;48.274;7.796;2023-11-21T11:13:17;9.90;99.90
7360;DHT22;3720;48.274;7.796;2023-11-21T11:15:49;10.00;99.90
7360;DHT22;3720;48.274;7.796;2023-11-21T11:18:22;10.10;99.90
7360;DHT22;3720;48.274;7.796;2023-11-21T11:20:54;10.10;99.90
7360;DHT22;3720;48.274;7.796;2023-11-21T11:23:43;10.10;99.90
7360;DHT22;3720;48.274;7.796;2023-11-21T11:26:24;10.20;99.90
7360;DHT22;3720;48.274;7.796;2023-11-21T11:29:05;10.20;99.90
7360;DHT22;3720;48.274;7.796;2023-11-21T11:31:50;10.20;99.90
7360;DHT22;3720;48.274;7.796;2023-11-21T11:34:30;10.20;99.90
7360;DHT22;3720;48.274;7.796;2023-11-21T11:37:05;10.30;99.90
7360;DHT22;3720;48.274;7.796;2023-11-21T11:39:40;10.30;99.90
7360;DHT22;3720;48.274;7.796;2023-11-21T11:42:15;10.30;99.90
7360;DHT22;3720;48.274;7.796;2023-11-21T11:44:51;10.40;99.90
7360;DHT22;3720;48.274;7.796;2023-11-21T11:47:26;10.40;99.90
7360;DHT22;3720;48.274;7.796;2023-11-21T11:50:06;10.40;99.90
7360;DHT22;3720;48.274;7.796;2023-11-21T11:52:45;10.40;99.90
7360;DHT22;3720;48.274;7.796;2023-11-21T11:55:18;10.50;99.90
7360;DHT22;3720;48.274;7.796;2023-11-21T11:57:51;10.50;99.90
7360;DHT22;3720;48.274;7.796;2023-11-21T12:00:34;10.60;99.90
7360;DHT22;3720;48.274;7.796;2023-11-21T12:03:09;10.50;99.90
7360;DHT22;3720;48.274;7.796;2023-11-21T12:05:42;10.60;99.90
7360;DHT22;3720;48.274;7.796;2023-11-21T12:08:16;10.50;99.90
7360;DHT22;3720;48.274;7.796;2023-11-21T12:10:48;10.60;99.90
7360;DHT22;3720;48.274;7.796;2023-11-21T12:13:20;10.50;99.90
7360;DHT22;3720;48.274;7.796;2023-11-21T12:15:54;10.50;99.90
7360;DHT22;3720;48.274;7.796;2023-11-21T12:18:26;10.50;99.90
7360;DHT22;3720;48.274;7.796;2023-11-21T12:20:59;10.50;99.90
7360;DHT22;3720;48.274;7.796;2023-11-21T12:23:31;10.50;99.90
7360;DHT22;3720;48.274;7.796;2023-11-21T12:26:03;10.60;99.90
7360;DHT22;3720;48.274;7.796;2023-11-21T12:28:35;10.50;99.90
7360;DHT22;3720;48.274;7.796;2023-11-21T12:31:07;10.60;99.90
7360;DHT22;3720;48.274;7.796;2023-11-21T12:33:39;10.60;99.90
7360;DHT22;3720;48.274;7.796;2023-11-21T12:36:12;10.60;99.90
7360;DHT22;3720;48.274;7.796;2023-11-21T12:38:44;10.70;99.90
7360;DHT22;3720;48.274;7.796;2023-11-21T12:41:16;10.80;99.90
7360;DHT22;3720;48.274;7.796;2023-11-21T12:43:48;11.00;99.90
7360;DHT22;3720;48.274;7.796;2023-11-21T12:46:20;11.20;99.90
7360;DHT22;3720;48.274;7.796;2023-11-21T12:48:52;11.20;99.90
7360;DHT22;3720;48.274;7.796;2023-11-21T12:51:26;11.20;99.90
7360;DHT22;3720;48.274;7.796;2023-11-21T12:53:57;11.30;99.90
7360;DHT22;3720;48.274;7.796;2023-11-21T12:56:30;11.30;99.90
7360;DHT22;3720;48.274;7.796;2023-11-21T12:59:02;11.30;99.90
7360;DHT22;3720;48.274;7.796;2023-11-21T13:01:35;11.30;99.90
7360;DHT22;3720;48.274;7.796;2023-11-21T13:04:08;11.20;99.90
7360;DHT22;3720;48.274;7.796;2023-11-21T13:06:42;11.20;99.90
7360;DHT22;3720;48.274;7.796;2023-11-21T13:09:14;11.10;99.90
7360;DHT22;3720;48.274;7.796;2023-11-21T13:11:59;11.00;99.90
7360;DHT22;3720;48.274;7.796;2023-11-21T13:14:34;11.00;99.90
7360;DHT22;3720;48.274;7.796;2023-11-21T13:17:06;10.90;99.90
7360;DHT22;3720;48.274;7.796;2023-11-21T13:19:37;10.90;99.90
7360;DHT22;3720;48.274;7.796;2023-11-21T13:22:10;10.90;99.90
7360;DHT22;3720;48.274;7.796;2023-11-21T13:24:42;10.90;99.90
7360;DHT22;3720;48.274;7.796;2023-11-21T13:27:14;10.80;99.90
7360;DHT22;3720;48.274;7.796;2023-11-21T13:29:46;10.80;99.90
7360;DHT22;3720;48.274;7.796;2023-11-21T13:32:18;10.80;99.90
7360;DHT22;3720;48.274;7.796;2023-11-21T13:34:51;10.80;99.90
7360;DHT22;3720;48.274;7.796;2023-11-21T13:37:26;10.70;99.90
7360;DHT22;3720;48.274;7.796;2023-11-21T13:39:58;10.70;99.90
7360;DHT22;3720;48.274;7.796;2023-11-21T13:42:30;10.60;99.90
7360;DHT22;3720;48.274;7.796;2023-11-21T13:45:03;10.70;99.90
7360;DHT22;3720;48.274;7.796;2023-11-21T13:47:36;10.60;99.90
7360;DHT22;3720;48.274;7.796;2023-11-21T13:50:08;10.60;99.90
7360;DHT22;3720;48.274;7.796;2023-11-21T13:52:49;10.60;99.90
7360;DHT22;3720;48.274;7.796;2023-11-21T13:55:21;10.50;99.90
7360;DHT22;3720;48.274;7.796;2023-11-21T13:57:55;10.60;99.90
7360;DHT22;3720;48.274;7.796;2023-11-21T14:00:27;10.60;99.90
7360;DHT22;3720;48.274;7.796;2023-11-21T14:03:12;10.60;99.90
7360;DHT22;3720;48.274;7.796;2023-11-21T14:05:52;10.50;99.90
7360;DHT22;3720;48.274;7.796;2023-11-21T14:08:27;10.50;99.90
7360;DHT22;3720;48.274;7.796;2023-11-21T14:11:00;10.60;99.90
7360;DHT22;3720;48.274;7.796;2023-11-21T14:13:31;10.60;99.90
7360;DHT22;3720;48.274;7.796;2023-11-21T14:16:04;10.60;99.90
7360;DHT22;3720;48.274;7.796;2023-11-21T14:18:37;10.60;99.90
7360;DHT22;3720;48.274;7.796;2023-11-21T14:21:21;10.60;99.90
7360;DHT22;3720;48.274;7.796;2023-11-21T14:23:54;10.50;99.90
7360;DHT22;3720;48.274;7.796;2023-11-21T14:26:26;10.60;99.90
7360;DHT22;3720;48.274;7.796;2023-11-21T14:28:59;10.60;99.90
7360;DHT22;3720;48.274;7.796;2023-11-21T14:31:31;10.60;99.90
7360;DHT22;3720;48.274;7.796;2023-11-21T14:34:04;10.50;99.90
7360;DHT22;3720;48.274;7.796;2023-11-21T14:36:37;10.50;99.90
7360;DHT22;3720;48.274;7.796;2023-11-21T14:39:11;10.40;99.90
7360;DHT22;3720;48.274;7.796;2023-11-21T14:41:54;10.50;99.90
7360;DHT22;3720;48.274;7.796;2023-11-21T14:44:28;10.40;99.90
7360;DHT22;3720;48.274;7.796;2023-11-21T14:47:06;10.50;99.90
7360;DHT22;3720;48.274;7.796;2023-11-21T14:49:45;10.40;99.90
7360;DHT22;3720;48.274;7.796;2023-11-21T14:52:23;10.30;99.90
7360;DHT22;3720;48.274;7.796;2023-11-21T14:55:06;10.20;99.90
7360;DHT22;3720;48.274;7.796;2023-11-21T14:57:52;10.20;99.90
7360;DHT22;3720;48.274;7.796;2023-11-21T15:00:23;10.20;99.90
7360;DHT22;3720;48.274;7.796;2023-11-21T15:03:14;10.20;99.90
7360;DHT22;3720;48.274;7.796;2023-11-21T15:06:05;10.20;99.90
7360;DHT22;3720;48.274;7.796;2023-11-21T15:08:50;10.10;99.90
7360;DHT22;3720;48.274;7.796;2023-11-21T15:11:40;10.20;99.90
7360;DHT22;3720;48.274;7.796;2023-11-21T15:14:12;10.20;99.90
7360;DHT22;3720;48.274;7.796;2023-11-21T15:16:50;10.10;99.90
7360;DHT22;3720;48.274;7.796;2023-11-21T15:19:24;10.10;99.90
7360;DHT22;3720;48.274;7.796;2023-11-21T15:21:56;10.10;99.90
7360;DHT22;3720;48.274;7.796;2023-11-21T15:24:28;10.10;99.90
7360;DHT22;3720;48.274;7.796;2023-11-21T15:27:01;10.10;99.90
7360;DHT22;3720;48.274;7.796;2023-11-21T15:29:34;10.10;99.90
7360;DHT22;3720;48.274;7.796;2023-11-21T15:32:06;10.10;99.90
7360;DHT22;3720;48.274;7.796;2023-11-21T15:34:38;10.10;99.90
7360;DHT22;3720;48.274;7.796;2023-11-21T15:37:11;10.10;99.90
7360;DHT22;3720;48.274;7.796;2023-11-21T15:39:42;10.10;99.90
7360;DHT22;3720;48.274;7.796;2023-11-21T15:42:16;10.00;99.90
7360;DHT22;3720;48.274;7.796;2023-11-21T15:44:48;10.00;99.90
7360;DHT22;3720;48.274;7.796;2023-11-21T15:47:21;10.00;99.90
7360;DHT22;3720;48.274;7.796;2023-11-21T15:49:53;9.90;99.90
7360;DHT22;3720;48.274;7.796;2023-11-21T15:52:25;9.90;99.90
7360;DHT22;3720;48.274;7.796;2023-11-21T15:54:59;9.90;99.90
7360;DHT22;3720;48.274;7.796;2023-11-21T15:57:32;10.00;99.90
7360;DHT22;3720;48.274;7.796;2023-11-21T16:00:05;10.00;99.90
7360;DHT22;3720;48.274;7.796;2023-11-21T16:02:46;9.90;99.90
7360;DHT22;3720;48.274;7.796;2023-11-21T16:05:19;9.90;99.90
7360;DHT22;3720;48.274;7.796;2023-11-21T16:07:50;9.90;99.90
7360;DHT22;3720;48.274;7.796;2023-11-21T16:10:22;9.90;99.90
7360;DHT22;3720;48.274;7.796;2023-11-21T16:12:56;9.90;99.90
7360;DHT22;3720;48.274;7.796;2023-11-21T16:15:27;9.90;99.90
7360;DHT22;3720;48.274;7.796;2023-11-21T16:18:00;9.90;99.90
7360;DHT22;3720;48.274;7.796;2023-11-21T16:20:31;9.90;99.90
7360;DHT22;3720;48.274;7.796;2023-11-21T16:23:04;9.90;99.90
7360;DHT22;3720;48.274;7.796;2023-11-21T16:25:36;9.90;99.90
7360;DHT22;3720;48.274;7.796;2023-11-21T16:28:09;10.00;99.90
7360;DHT22;3720;48.274;7.796;2023-11-21T16:30:41;10.00;99.90
7360;DHT22;3720;48.274;7.796;2023-11-21T16:33:13;9.90;99.90
7360;DHT22;3720;48.274;7.796;2023-11-21T16:35:45;9.90;99.90
7360;DHT22;3720;48.274;7.796;2023-11-21T16:38:17;9.90;99.90
7360;DHT22;3720;48.274;7.796;2023-11-21T16:40:49;9.80;99.90
7360;DHT22;3720;48.274;7.796;2023-11-21T16:43:22;9.80;99.90
7360;DHT22;3720;48.274;7.796;2023-11-21T16:45:54;9.80;99.90
7360;DHT22;3720;48.274;7.796;2023-11-21T16:48:26;9.80;99.90